sensor_id;sensor_type;location;lat;lon;timestamp;temperature;humidity
16955;DHT22;8594;52.052;8.354;2023-07-22T00:02:25;15.60;99.90
16955;DHT22;8594;52.052;8.354;2023-07-22T00:04:52;15.50;99.90
16955;DHT22;8594;52.052;8.354;2023-07-22T00:07:19;15.50;99.90
16955;DHT22;8594;52.052;8.354;2023-07-22T00:09:46;15.40;99.90
16955;DHT22;8594;52.052;8.354;2023-07-22T00:12:14;15.50;99.90
16955;DHT22;8594;52.052;8.354;2023-07-22T00:14:41;15.30;99.90
16955;DHT22;8594;52.052;8.354;2023-07-22T00:17:08;15.20;99.90
16955;DHT22;8594;52.052;8.354;2023-07-22T00:19:37;15.30;99.90
16955;DHT22;8594;52.052;8.354;2023-07-22T00:22:04;15.30;99.90
16955;DHT22;8594;52.052;8.354;2023-07-22T00:24:31;15.20;99.90
16955;DHT22;8594;52.052;8.354;2023-07-22T00:26:58;15.20;99.90
16955;DHT22;8594;52.052;8.354;2023-07-22T00:29:25;15.20;99.90
16955;DHT22;8594;52.052;8.354;2023-07-22T00:31:51;15.20;99.90
16955;DHT22;8594;52.052;8.354;2023-07-22T00:34:18;15.30;99.90
16955;DHT22;8594;52.052;8.354;2023-07-22T00:36:46;15.40;99.90
16955;DHT22;8594;52.052;8.354;2023-07-22T00:39:13;15.50;99.90
16955;DHT22;8594;52.052;8.354;2023-07-22T00:41:40;15.50;99.90
16955;DHT22;8594;52.052;8.354;2023-07-22T00:44:09;15.60;99.90
16955;DHT22;8594;52.052;8.354;2023-07-22T00:46:37;15.70;99.90
16955;DHT22;8594;52.052;8.354;2023-07-22T00:49:05;15.60;99.90
16955;DHT22;8594;52.052;8.354;2023-07-22T00:51:33;15.60;99.90
16955;DHT22;8594;52.052;8.354;2023-07-22T00:54:02;15.70;99.90
16955;DHT22;8594;52.052;8.354;2023-07-22T00:56:33;15.80;99.90
16955;DHT22;8594;52.052;8.354;2023-07-22T00:59:03;15.60;99.90
16955;DHT22;8594;52.052;8.354;2023-07-22T01:01:30;15.50;99.90
16955;DHT22;8594;52.052;8.354;2023-07-22T01:03:57;15.20;99.90
16955;DHT22;8594;52.052;8.354;2023-07-22T01:06:25;15.20;99.90
16955;DHT22;8594;52.052;8.354;2023-07-22T01:08:54;15.00;99.90
16955;DHT22;8594;52.052;8.354;2023-07-22T01:11:24;15.00;99.90
16955;DHT22;8594;52.052;8.354;2023-07-22T01:13:51;15.00;99.90
16955;DHT22;8594;52.052;8.354;2023-07-22T01:16:23;15.00;99.90
16955;DHT22;8594;52.052;8.354;2023-07-22T01:18:52;15.00;99.90
16955;DHT22;8594;52.052;8.354;2023-07-22T01:21:20;14.90;99.90
16955;DHT22;8594;52.052;8.354;2023-07-22T10:45:04;23.50;99.90
16955;DHT22;8594;52.052;8.354;2023-07-22T10:48:01;23.00;99.90
16955;DHT22;8594;52.052;8.354;2023-07-22T10:50:40;22.80;99.90
16955;DHT22;8594;52.052;8.354;2023-07-22T10:53:11;23.00;99.90
16955;DHT22;8594;52.052;8.354;2023-07-22T10:56:05;22.80;99.90
16955;DHT22;8594;52.052;8.354;2023-07-22T10:58:36;22.60;99.90
16955;DHT22;8594;52.052;8.354;2023-07-22T11:01:38;22.60;99.90
16955;DHT22;8594;52.052;8.354;2023-07-22T11:04:14;22.80;99.90
16955;DHT22;8594;52.052;8.354;2023-07-22T11:06:54;22.90;99.90
16955;DHT22;8594;52.052;8.354;2023-07-22T11:09:35;23.30;99.90
16955;DHT22;8594;52.052;8.354;2023-07-22T11:12:05;23.30;99.90
16955;DHT22;8594;52.052;8.354;2023-07-22T11:14:34;23.20;99.90
16955;DHT22;8594;52.052;8.354;2023-07-22T11:17:06;23.00;99.90
16955;DHT22;8594;52.052;8.354;2023-07-22T11:19:34;23.20;99.90
16955;DHT22;8594;52.052;8.354;2023-07-22T11:22:02;23.40;99.90
16955;DHT22;8594;52.052;8.354;2023-07-22T11:24:34;23.50;99.90
16955;DHT22;8594;52.052;8.354;2023-07-22T11:27:04;23.50;99.90
16955;DHT22;8594;52.052;8.354;2023-07-22T11:29:31;23.60;99.90
16955;DHT22;8594;52.052;8.354;2023-07-22T11:31:59;23.40;99.90
16955;DHT22;8594;52.052;8.354;2023-07-22T11:34:27;23.10;99.90
16955;DHT22;8594;52.052;8.354;2023-07-22T11:36:55;23.30;99.90
16955;DHT22;8594;52.052;8.354;2023-07-22T11:39:24;23.60;99.90
16955;DHT22;8594;52.052;8.354;2023-07-22T11:41:52;23.70;99.90
16955;DHT22;8594;52.052;8.354;2023-07-22T11:44:21;23.90;99.90
16955;DHT22;8594;52.052;8.354;2023-07-22T11:46:55;23.90;99.90
16955;DHT22;8594;52.052;8.354;2023-07-22T11:49:23;23.70;99.90
16955;DHT22;8594;52.052;8.354;2023-07-22T11:51:57;23.30;99.90
16955;DHT22;8594;52.052;8.354;2023-07-22T11:54:25;23.10;99.90
16955;DHT22;8594;52.052;8.354;2023-07-22T11:56:52;23.40;99.90
16955;DHT22;8594;52.052;8.354;2023-07-22T11:59:35;23.30;99.90
16955;DHT22;8594;52.052;8.354;2023-07-22T12:02:04;23.50;99.90
16955;DHT22;8594;52.052;8.354;2023-07-22T12:04:34;23.40;99.90
16955;DHT22;8594;52.052;8.354;2023-07-22T12:07:01;23.60;99.90
16955;DHT22;8594;52.052;8.354;2023-07-22T12:09:29;23.80;99.90
16955;DHT22;8594;52.052;8.354;2023-07-22T12:11:57;23.90;99.90
16955;DHT22;8594;52.052;8.354;2023-07-22T12:14:32;23.60;99.90
16955;DHT22;8594;52.052;8.354;2023-07-22T12:17:00;23.20;99.90
16955;DHT22;8594;52.052;8.354;2023-07-22T12:19:28;23.40;99.90
16955;DHT22;8594;52.052;8.354;2023-07-22T12:21:56;23.60;99.90
16955;DHT22;8594;52.052;8.354;2023-07-22T12:24:23;23.80;99.90
16955;DHT22;8594;52.052;8.354;2023-07-22T12:26:50;23.90;99.90
16955;DHT22;8594;52.052;8.354;2023-07-22T12:29:17;23.70;99.90
16955;DHT22;8594;52.052;8.354;2023-07-22T12:31:44;23.60;99.90
16955;DHT22;8594;52.052;8.354;2023-07-22T12:34:11;23.40;99.90
16955;DHT22;8594;52.052;8.354;2023-07-22T12:36:38;23.50;99.90
16955;DHT22;8594;52.052;8.354;2023-07-22T12:39:07;23.60;99.90
16955;DHT22;8594;52.052;8.354;2023-07-22T12:41:34;23.40;99.90
16955;DHT22;8594;52.052;8.354;2023-07-22T12:44:01;23.40;99.90
16955;DHT22;8594;52.052;8.354;2023-07-22T12:46:28;23.70;99.90
16955;DHT22;8594;52.052;8.354;2023-07-22T12:48:55;23.50;99.90
16955;DHT22;8594;52.052;8.354;2023-07-22T12:51:22;23.40;99.90
16955;DHT22;8594;52.052;8.354;2023-07-22T12:53:49;23.30;99.90
16955;DHT22;8594;52.052;8.354;2023-07-22T12:56:17;23.50;99.90
16955;DHT22;8594;52.052;8.354;2023-07-22T12:58:44;23.60;99.90
16955;DHT22;8594;52.052;8.354;2023-07-22T13:01:12;23.50;99.90
16955;DHT22;8594;52.052;8.354;2023-07-22T13:03:39;23.60;99.90
16955;DHT22;8594;52.052;8.354;2023-07-22T13:06:06;23.50;99.90
16955;DHT22;8594;52.052;8.354;2023-07-22T13:08:33;23.20;99.90
16955;DHT22;8594;52.052;8.354;2023-07-22T13:10:59;23.40;99.90
16955;DHT22;8594;52.052;8.354;2023-07-22T13:13:28;23.30;99.90
16955;DHT22;8594;52.052;8.354;2023-07-22T13:15:54;23.40;99.90
16955;DHT22;8594;52.052;8.354;2023-07-22T13:18:21;23.70;99.90
16955;DHT22;8594;52.052;8.354;2023-07-22T13:20:48;24.10;99.90
16955;DHT22;8594;52.052;8.354;2023-07-22T13:23:15;24.10;99.90
16955;DHT22;8594;52.052;8.354;2023-07-22T13:25:42;24.20;99.90
16955;DHT22;8594;52.052;8.354;2023-07-22T13:28:09;24.10;99.90
16955;DHT22;8594;52.052;8.354;2023-07-22T13:30:37;24.10;99.90
16955;DHT22;8594;52.052;8.354;2023-07-22T13:33:04;24.00;99.90
16955;DHT22;8594;52.052;8.354;2023-07-22T13:35:31;24.10;99.90
16955;DHT22;8594;52.052;8.354;2023-07-22T13:37:58;24.10;99.90
16955;DHT22;8594;52.052;8.354;2023-07-22T13:40:25;24.40;99.90
16955;DHT22;8594;52.052;8.354;2023-07-22T13:42:52;24.50;99.90
16955;DHT22;8594;52.052;8.354;2023-07-22T13:45:19;24.50;99.90
16955;DHT22;8594;52.052;8.354;2023-07-22T13:47:47;24.40;99.90
16955;DHT22;8594;52.052;8.354;2023-07-22T13:50:14;24.60;99.90
16955;DHT22;8594;52.052;8.354;2023-07-22T13:52:41;24.70;99.90
16955;DHT22;8594;52.052;8.354;2023-07-22T13:55:09;24.60;99.90
16955;DHT22;8594;52.052;8.354;2023-07-22T13:57:36;24.40;99.90
16955;DHT22;8594;52.052;8.354;2023-07-22T14:00:03;24.50;99.90
16955;DHT22;8594;52.052;8.354;2023-07-22T14:02:34;24.30;99.90
16955;DHT22;8594;52.052;8.354;2023-07-22T14:05:02;24.20;99.90
16955;DHT22;8594;52.052;8.354;2023-07-22T14:07:30;24.00;99.90
16955;DHT22;8594;52.052;8.354;2023-07-22T14:09:56;23.90;99.90
16955;DHT22;8594;52.052;8.354;2023-07-22T14:12:23;23.90;99.90
16955;DHT22;8594;52.052;8.354;2023-07-22T14:14:50;23.80;99.90
16955;DHT22;8594;52.052;8.354;2023-07-22T14:17:17;23.80;99.90
16955;DHT22;8594;52.052;8.354;2023-07-22T14:19:44;24.00;99.90
16955;DHT22;8594;52.052;8.354;2023-07-22T14:22:12;23.90;99.90
16955;DHT22;8594;52.052;8.354;2023-07-22T14:24:39;23.90;99.90
16955;DHT22;8594;52.052;8.354;2023-07-22T14:27:07;23.60;99.90
16955;DHT22;8594;52.052;8.354;2023-07-22T14:29:33;23.50;99.90
16955;DHT22;8594;52.052;8.354;2023-07-22T14:32:00;23.50;99.90
16955;DHT22;8594;52.052;8.354;2023-07-22T14:34:28;23.80;99.90
16955;DHT22;8594;52.052;8.354;2023-07-22T14:36:55;24.10;99.90
16955;DHT22;8594;52.052;8.354;2023-07-22T14:39:23;24.00;99.90
16955;DHT22;8594;52.052;8.354;2023-07-22T14:41:50;24.10;99.90
16955;DHT22;8594;52.052;8.354;2023-07-22T14:44:18;24.00;99.90
16955;DHT22;8594;52.052;8.354;2023-07-22T14:46:45;23.80;99.90
16955;DHT22;8594;52.052;8.354;2023-07-22T14:49:12;23.80;99.90
16955;DHT22;8594;52.052;8.354;2023-07-22T14:51:39;23.90;99.90
16955;DHT22;8594;52.052;8.354;2023-07-22T14:54:06;23.90;99.90
16955;DHT22;8594;52.052;8.354;2023-07-22T14:56:35;23.70;99.90
16955;DHT22;8594;52.052;8.354;2023-07-22T14:59:02;23.80;99.90
16955;DHT22;8594;52.052;8.354;2023-07-22T15:01:36;23.80;99.90
16955;DHT22;8594;52.052;8.354;2023-07-22T15:04:04;23.80;99.90
16955;DHT22;8594;52.052;8.354;2023-07-22T15:06:31;24.00;99.90
16955;DHT22;8594;52.052;8.354;2023-07-22T15:08:58;24.10;99.90
16955;DHT22;8594;52.052;8.354;2023-07-22T15:11:25;24.20;99.90
16955;DHT22;8594;52.052;8.354;2023-07-22T15:13:53;24.10;99.90
16955;DHT22;8594;52.052;8.354;2023-07-22T15:16:20;24.10;99.90
16955;DHT22;8594;52.052;8.354;2023-07-22T15:18:47;24.30;99.90
16955;DHT22;8594;52.052;8.354;2023-07-22T15:21:14;24.20;99.90
16955;DHT22;8594;52.052;8.354;2023-07-22T15:23:41;24.30;99.90
16955;DHT22;8594;52.052;8.354;2023-07-22T15:26:08;24.30;99.90
16955;DHT22;8594;52.052;8.354;2023-07-22T15:28:35;24.30;99.90
16955;DHT22;8594;52.052;8.354;2023-07-22T15:31:03;24.10;99.90
16955;DHT22;8594;52.052;8.354;2023-07-22T15:33:30;24.20;99.90
16955;DHT22;8594;52.052;8.354;2023-07-22T15:35:57;24.20;99.90
16955;DHT22;8594;52.052;8.354;2023-07-22T15:38:23;24.30;99.90
16955;DHT22;8594;52.052;8.354;2023-07-22T15:40:53;24.10;99.90
16955;DHT22;8594;52.052;8.354;2023-07-22T15:43:20;24.20;99.90
16955;DHT22;8594;52.052;8.354;2023-07-22T15:45:47;24.40;99.90
16955;DHT22;8594;52.052;8.354;2023-07-22T15:48:15;24.40;99.90
16955;DHT22;8594;52.052;8.354;2023-07-22T15:50:42;24.50;99.90
16955;DHT22;8594;52.052;8.354;2023-07-22T15:53:09;24.60;99.90
16955;DHT22;8594;52.052;8.354;2023-07-22T15:55:36;24.60;99.90
16955;DHT22;8594;52.052;8.354;2023-07-22T15:58:03;24.80;99.90
16955;DHT22;8594;52.052;8.354;2023-07-22T16:00:31;24.80;99.90
16955;DHT22;8594;52.052;8.354;2023-07-22T16:02:57;24.60;99.90
16955;DHT22;8594;52.052;8.354;2023-07-22T16:05:26;24.40;99.90
16955;DHT22;8594;52.052;8.354;2023-07-22T16:07:53;24.50;99.90
16955;DHT22;8594;52.052;8.354;2023-07-22T16:10:21;24.40;99.90
16955;DHT22;8594;52.052;8.354;2023-07-22T16:12:49;24.30;99.90
16955;DHT22;8594;52.052;8.354;2023-07-22T16:15:16;24.20;99.90
16955;DHT22;8594;52.052;8.354;2023-07-22T16:17:44;24.20;99.90
16955;DHT22;8594;52.052;8.354;2023-07-22T16:20:11;24.30;99.90
16955;DHT22;8594;52.052;8.354;2023-07-22T16:22:39;24.40;99.90
16955;DHT22;8594;52.052;8.354;2023-07-22T16:25:07;24.30;99.90
16955;DHT22;8594;52.052;8.354;2023-07-22T16:27:35;24.30;99.90
16955;DHT22;8594;52.052;8.354;2023-07-22T16:30:03;24.30;99.90
16955;DHT22;8594;52.052;8.354;2023-07-22T16:32:30;24.30;99.90
16955;DHT22;8594;52.052;8.354;2023-07-22T16:34:57;24.20;99.90
16955;DHT22;8594;52.052;8.354;2023-07-22T16:37:24;23.90;99.90
16955;DHT22;8594;52.052;8.354;2023-07-22T16:39:52;24.00;99.90
16955;DHT22;8594;52.052;8.354;2023-07-22T16:42:21;24.10;99.90
16955;DHT22;8594;52.052;8.354;2023-07-22T16:44:48;24.10;99.90
16955;DHT22;8594;52.052;8.354;2023-07-22T16:47:15;24.20;99.90
16955;DHT22;8594;52.052;8.354;2023-07-22T16:49:41;24.10;99.90
16955;DHT22;8594;52.052;8.354;2023-07-22T16:52:08;24.10;99.90
16955;DHT22;8594;52.052;8.354;2023-07-22T16:54:35;24.00;99.90
16955;DHT22;8594;52.052;8.354;2023-07-22T16:57:04;23.90;99.90
16955;DHT22;8594;52.052;8.354;2023-07-22T16:59:32;23.80;99.90
16955;DHT22;8594;52.052;8.354;2023-07-22T17:01:59;23.80;99.90
16955;DHT22;8594;52.052;8.354;2023-07-22T17:04:26;23.80;99.90
16955;DHT22;8594;52.052;8.354;2023-07-22T17:06:53;23.70;99.90
16955;DHT22;8594;52.052;8.354;2023-07-22T17:09:20;23.90;99.90
16955;DHT22;8594;52.052;8.354;2023-07-22T17:11:48;23.70;99.90
16955;DHT22;8594;52.052;8.354;2023-07-22T17:14:16;23.60;99.90
16955;DHT22;8594;52.052;8.354;2023-07-22T17:16:43;23.70;99.90
16955;DHT22;8594;52.052;8.354;2023-07-22T17:19:10;23.60;99.90
16955;DHT22;8594;52.052;8.354;2023-07-22T17:21:37;23.60;99.90
16955;DHT22;8594;52.052;8.354;2023-07-22T17:24:04;23.70;99.90
16955;DHT22;8594;52.052;8.354;2023-07-22T17:26:31;23.80;99.90
16955;DHT22;8594;52.052;8.354;2023-07-22T17:28:58;23.80;99.90
16955;DHT22;8594;52.052;8.354;2023-07-22T17:31:26;23.80;99.90
16955;DHT22;8594;52.052;8.354;2023-07-22T17:33:53;23.80;99.90
16955;DHT22;8594;52.052;8.354;2023-07-22T17:36:20;23.80;99.90
16955;DHT22;8594;52.052;8.354;2023-07-22T17:38:47;23.80;99.90
16955;DHT22;8594;52.052;8.354;2023-07-22T17:41:14;23.70;99.90
16955;DHT22;8594;52.052;8.354;2023-07-22T17:43:41;23.60;99.90
16955;DHT22;8594;52.052;8.354;2023-07-22T17:46:08;23.60;99.90
16955;DHT22;8594;52.052;8.354;2023-07-22T17:48:36;23.60;99.90
16955;DHT22;8594;52.052;8.354;2023-07-22T17:51:03;23.60;99.90
16955;DHT22;8594;52.052;8.354;2023-07-22T17:53:29;23.50;99.90
16955;DHT22;8594;52.052;8.354;2023-07-22T17:55:56;23.50;99.90
16955;DHT22;8594;52.052;8.354;2023-07-22T17:58:23;23.30;99.90
16955;DHT22;8594;52.052;8.354;2023-07-22T18:00:50;23.20;99.90
16955;DHT22;8594;52.052;8.354;2023-07-22T18:03:17;23.20;99.90
16955;DHT22;8594;52.052;8.354;2023-07-22T18:05:48;23.30;99.90
16955;DHT22;8594;52.052;8.354;2023-07-22T18:08:15;23.30;99.90
16955;DHT22;8594;52.052;8.354;2023-07-22T18:10:42;23.30;99.90
16955;DHT22;8594;52.052;8.354;2023-07-22T18:13:09;23.30;99.90
16955;DHT22;8594;52.052;8.354;2023-07-22T18:15:36;23.40;99.90
16955;DHT22;8594;52.052;8.354;2023-07-22T18:18:03;23.30;99.90
16955;DHT22;8594;52.052;8.354;2023-07-22T18:20:30;23.30;99.90
16955;DHT22;8594;52.052;8.354;2023-07-22T18:22:58;23.20;99.90
16955;DHT22;8594;52.052;8.354;2023-07-22T18:25:25;23.10;99.90
16955;DHT22;8594;52.052;8.354;2023-07-22T18:27:52;22.80;99.90
16955;DHT22;8594;52.052;8.354;2023-07-22T18:30:19;22.80;99.90
16955;DHT22;8594;52.052;8.354;2023-07-22T18:32:45;22.60;99.90
16955;DHT22;8594;52.052;8.354;2023-07-22T18:35:12;22.50;99.90
16955;DHT22;8594;52.052;8.354;2023-07-22T18:37:39;22.50;99.90
16955;DHT22;8594;52.052;8.354;2023-07-22T18:40:09;22.70;99.90
16955;DHT22;8594;52.052;8.354;2023-07-22T18:42:36;22.50;99.90
16955;DHT22;8594;52.052;8.354;2023-07-22T18:45:03;22.60;99.90
16955;DHT22;8594;52.052;8.354;2023-07-22T18:47:31;22.70;99.90
16955;DHT22;8594;52.052;8.354;2023-07-22T18:49:58;22.60;99.90
16955;DHT22;8594;52.052;8.354;2023-07-22T18:52:25;22.40;99.90
16955;DHT22;8594;52.052;8.354;2023-07-22T18:54:52;22.20;99.90
16955;DHT22;8594;52.052;8.354;2023-07-22T18:57:20;22.10;99.90
16955;DHT22;8594;52.052;8.354;2023-07-22T18:59:47;22.00;99.90
16955;DHT22;8594;52.052;8.354;2023-07-22T19:02:14;21.70;99.90
16955;DHT22;8594;52.052;8.354;2023-07-22T19:04:41;21.70;99.90
16955;DHT22;8594;52.052;8.354;2023-07-22T19:07:08;21.50;99.90
16955;DHT22;8594;52.052;8.354;2023-07-22T19:09:34;21.50;99.90
16955;DHT22;8594;52.052;8.354;2023-07-22T19:12:02;21.40;99.90
16955;DHT22;8594;52.052;8.354;2023-07-22T19:14:30;21.30;99.90
16955;DHT22;8594;52.052;8.354;2023-07-22T19:16:57;21.10;99.90
16955;DHT22;8594;52.052;8.354;2023-07-22T19:19:24;21.10;99.90
16955;DHT22;8594;52.052;8.354;2023-07-22T19:21:52;21.00;99.90
16955;DHT22;8594;52.052;8.354;2023-07-22T19:24:20;21.00;99.90
16955;DHT22;8594;52.052;8.354;2023-07-22T19:26:47;21.00;99.90
16955;DHT22;8594;52.052;8.354;2023-07-22T19:29:14;20.70;99.90
16955;DHT22;8594;52.052;8.354;2023-07-22T19:31:42;20.70;99.90
16955;DHT22;8594;52.052;8.354;2023-07-22T19:34:10;20.70;99.90
16955;DHT22;8594;52.052;8.354;2023-07-22T19:36:38;20.70;99.90
16955;DHT22;8594;52.052;8.354;2023-07-22T19:39:05;20.70;99.90
16955;DHT22;8594;52.052;8.354;2023-07-22T19:41:31;20.70;99.90
16955;DHT22;8594;52.052;8.354;2023-07-22T19:43:58;20.70;99.90
16955;DHT22;8594;52.052;8.354;2023-07-22T19:46:25;20.70;99.90
16955;DHT22;8594;52.052;8.354;2023-07-22T19:48:53;20.80;99.90
16955;DHT22;8594;52.052;8.354;2023-07-22T19:51:20;20.80;99.90
16955;DHT22;8594;52.052;8.354;2023-07-22T19:53:47;20.80;99.90
16955;DHT22;8594;52.052;8.354;2023-07-22T19:56:14;20.90;99.90
16955;DHT22;8594;52.052;8.354;2023-07-22T19:58:41;20.90;99.90
16955;DHT22;8594;52.052;8.354;2023-07-22T20:01:08;21.00;99.90
16955;DHT22;8594;52.052;8.354;2023-07-22T20:03:35;21.10;99.90
16955;DHT22;8594;52.052;8.354;2023-07-22T20:06:04;21.10;99.90
16955;DHT22;8594;52.052;8.354;2023-07-22T20:08:31;20.90;99.90
16955;DHT22;8594;52.052;8.354;2023-07-22T20:10:59;20.90;99.90
16955;DHT22;8594;52.052;8.354;2023-07-22T20:13:26;21.10;99.90
16955;DHT22;8594;52.052;8.354;2023-07-22T20:15:52;21.00;99.90
16955;DHT22;8594;52.052;8.354;2023-07-22T20:18:19;20.70;99.90
16955;DHT22;8594;52.052;8.354;2023-07-22T20:20:47;20.50;99.90
16955;DHT22;8594;52.052;8.354;2023-07-22T20:23:15;20.50;99.90
16955;DHT22;8594;52.052;8.354;2023-07-22T20:25:42;20.50;99.90
16955;DHT22;8594;52.052;8.354;2023-07-22T20:28:10;20.30;99.90
16955;DHT22;8594;52.052;8.354;2023-07-22T20:30:37;20.30;99.90
16955;DHT22;8594;52.052;8.354;2023-07-22T20:33:04;20.30;99.90
16955;DHT22;8594;52.052;8.354;2023-07-22T20:35:31;20.10;99.90
16955;DHT22;8594;52.052;8.354;2023-07-22T20:37:58;20.20;99.90
16955;DHT22;8594;52.052;8.354;2023-07-22T20:40:26;20.30;99.90
16955;DHT22;8594;52.052;8.354;2023-07-22T20:42:53;20.30;99.90
16955;DHT22;8594;52.052;8.354;2023-07-22T20:45:21;20.30;99.90
16955;DHT22;8594;52.052;8.354;2023-07-22T20:47:48;20.20;99.90
16955;DHT22;8594;52.052;8.354;2023-07-22T20:50:16;20.20;99.90
16955;DHT22;8594;52.052;8.354;2023-07-22T20:52:43;20.20;99.90
16955;DHT22;8594;52.052;8.354;2023-07-22T20:55:10;20.30;99.90
16955;DHT22;8594;52.052;8.354;2023-07-22T20:57:38;20.20;99.90
16955;DHT22;8594;52.052;8.354;2023-07-22T21:00:07;20.10;99.90
16955;DHT22;8594;52.052;8.354;2023-07-22T21:02:35;20.10;99.90
16955;DHT22;8594;52.052;8.354;2023-07-22T21:05:02;20.00;99.90
16955;DHT22;8594;52.052;8.354;2023-07-22T21:07:29;20.10;99.90
16955;DHT22;8594;52.052;8.354;2023-07-22T21:09:55;20.10;99.90
16955;DHT22;8594;52.052;8.354;2023-07-22T21:12:22;20.10;99.90
16955;DHT22;8594;52.052;8.354;2023-07-22T21:14:51;20.10;99.90
16955;DHT22;8594;52.052;8.354;2023-07-22T21:17:18;20.10;99.90
16955;DHT22;8594;52.052;8.354;2023-07-22T21:19:45;20.00;99.90
16955;DHT22;8594;52.052;8.354;2023-07-22T21:22:12;20.00;99.90
16955;DHT22;8594;52.052;8.354;2023-07-22T21:24:39;20.00;99.90
16955;DHT22;8594;52.052;8.354;2023-07-22T21:27:06;20.00;99.90
16955;DHT22;8594;52.052;8.354;2023-07-22T21:29:33;19.90;99.90
16955;DHT22;8594;52.052;8.354;2023-07-22T21:32:02;19.80;99.90
16955;DHT22;8594;52.052;8.354;2023-07-22T21:34:29;19.90;99.90
16955;DHT22;8594;52.052;8.354;2023-07-22T21:36:56;19.90;99.90
16955;DHT22;8594;52.052;8.354;2023-07-22T21:39:23;19.80;99.90
16955;DHT22;8594;52.052;8.354;2023-07-22T21:41:52;19.70;99.90
16955;DHT22;8594;52.052;8.354;2023-07-22T21:44:19;19.80;99.90
16955;DHT22;8594;52.052;8.354;2023-07-22T21:46:46;19.80;99.90
16955;DHT22;8594;52.052;8.354;2023-07-22T21:49:15;19.80;99.90
16955;DHT22;8594;52.052;8.354;2023-07-22T21:51:41;19.80;99.90
16955;DHT22;8594;52.052;8.354;2023-07-22T21:54:10;19.90;99.90
16955;DHT22;8594;52.052;8.354;2023-07-22T21:56:37;19.70;99.90
16955;DHT22;8594;52.052;8.354;2023-07-22T21:59:03;19.90;99.90
16955;DHT22;8594;52.052;8.354;2023-07-22T22:01:33;19.90;99.90
16955;DHT22;8594;52.052;8.354;2023-07-22T22:04:01;19.70;99.90
16955;DHT22;8594;52.052;8.354;2023-07-22T22:06:29;19.70;99.90
16955;DHT22;8594;52.052;8.354;2023-07-22T22:08:56;19.60;99.90
16955;DHT22;8594;52.052;8.354;2023-07-22T22:11:23;19.50;99.90
16955;DHT22;8594;52.052;8.354;2023-07-22T22:13:50;19.30;99.90
16955;DHT22;8594;52.052;8.354;2023-07-22T22:16:17;19.10;99.90
16955;DHT22;8594;52.052;8.354;2023-07-22T22:18:43;19.00;99.90
16955;DHT22;8594;52.052;8.354;2023-07-22T22:21:10;19.10;99.90
16955;DHT22;8594;52.052;8.354;2023-07-22T22:23:38;19.10;99.90
16955;DHT22;8594;52.052;8.354;2023-07-22T22:26:05;19.00;99.90
16955;DHT22;8594;52.052;8.354;2023-07-22T22:28:32;18.80;99.90
16955;DHT22;8594;52.052;8.354;2023-07-22T22:31:00;18.80;99.90
16955;DHT22;8594;52.052;8.354;2023-07-22T22:33:28;19.00;99.90
16955;DHT22;8594;52.052;8.354;2023-07-22T22:35:55;19.00;99.90
16955;DHT22;8594;52.052;8.354;2023-07-22T22:38:22;19.00;99.90
16955;DHT22;8594;52.052;8.354;2023-07-22T22:40:50;18.90;99.90
16955;DHT22;8594;52.052;8.354;2023-07-22T22:43:17;18.90;99.90
16955;DHT22;8594;52.052;8.354;2023-07-22T22:45:44;18.90;99.90
16955;DHT22;8594;52.052;8.354;2023-07-22T22:48:11;18.90;99.90
16955;DHT22;8594;52.052;8.354;2023-07-22T22:50:41;18.80;99.90
16955;DHT22;8594;52.052;8.354;2023-07-22T22:53:08;18.80;99.90
16955;DHT22;8594;52.052;8.354;2023-07-22T22:55:35;18.70;99.90
16955;DHT22;8594;52.052;8.354;2023-07-22T22:58:04;18.80;99.90
16955;DHT22;8594;52.052;8.354;2023-07-22T23:00:31;18.80;99.90
16955;DHT22;8594;52.052;8.354;2023-07-22T23:02:58;18.80;99.90
16955;DHT22;8594;52.052;8.354;2023-07-22T23:05:24;18.80;99.90
16955;DHT22;8594;52.052;8.354;2023-07-22T23:07:50;18.80;99.90
16955;DHT22;8594;52.052;8.354;2023-07-22T23:10:17;18.70;99.90
16955;DHT22;8594;52.052;8.354;2023-07-22T23:12:44;18.70;99.90
16955;DHT22;8594;52.052;8.354;2023-07-22T23:15:12;18.80;99.90
16955;DHT22;8594;52.052;8.354;2023-07-22T23:17:39;19.10;99.90
16955;DHT22;8594;52.052;8.354;2023-07-22T23:20:07;19.10;99.90
16955;DHT22;8594;52.052;8.354;2023-07-22T23:22:34;19.10;99.90
16955;DHT22;8594;52.052;8.354;2023-07-22T23:25:01;19.10;99.90
16955;DHT22;8594;52.052;8.354;2023-07-22T23:27:28;19.00;99.90
16955;DHT22;8594;52.052;8.354;2023-07-22T23:29:56;18.70;99.90
16955;DHT22;8594;52.052;8.354;2023-07-22T23:32:24;18.60;99.90
16955;DHT22;8594;52.052;8.354;2023-07-22T23:34:51;18.60;99.90
16955;DHT22;8594;52.052;8.354;2023-07-22T23:37:22;18.60;99.90
16955;DHT22;8594;52.052;8.354;2023-07-22T23:39:49;18.60;99.90
16955;DHT22;8594;52.052;8.354;2023-07-22T23:42:16;18.80;99.90
16955;DHT22;8594;52.052;8.354;2023-07-22T23:44:43;18.90;99.90
16955;DHT22;8594;52.052;8.354;2023-07-22T23:47:10;18.80;99.90
16955;DHT22;8594;52.052;8.354;2023-07-22T23:49:38;18.80;99.90
16955;DHT22;8594;52.052;8.354;2023-07-22T23:52:06;18.70;99.90
16955;DHT22;8594;52.052;8.354;2023-07-22T23:54:33;18.60;99.90
16955;DHT22;8594;52.052;8.354;2023-07-22T23:57:00;18.70;99.90
16955;DHT22;8594;52.052;8.354;2023-07-22T23:59:28;18.70;99.90
